sensor_id;sensor_type;location;lat;lon;timestamp;temperature;humidity
21123;DHT22;10719;48.130;11.630;2023-02-11T00:01:10;-2.20;99.90
21123;DHT22;10719;48.130;11.630;2023-02-11T00:03:36;-2.20;99.90
21123;DHT22;10719;48.130;11.630;2023-02-11T00:06:05;-2.20;99.90
21123;DHT22;10719;48.130;11.630;2023-02-11T00:08:31;-2.30;99.90
21123;DHT22;10719;48.130;11.630;2023-02-11T00:10:57;-2.30;99.90
21123;DHT22;10719;48.130;11.630;2023-02-11T00:13:23;-2.30;99.90
21123;DHT22;10719;48.130;11.630;2023-02-11T00:15:49;-2.20;99.90
21123;DHT22;10719;48.130;11.630;2023-02-11T00:18:14;-2.20;99.90
21123;DHT22;10719;48.130;11.630;2023-02-11T00:20:40;-2.10;99.90
21123;DHT22;10719;48.130;11.630;2023-02-11T00:23:06;-2.10;99.90
21123;DHT22;10719;48.130;11.630;2023-02-11T00:25:32;-2.10;99.90
21123;DHT22;10719;48.130;11.630;2023-02-11T00:27:58;-2.00;99.90
21123;DHT22;10719;48.130;11.630;2023-02-11T00:30:23;-2.10;99.90
21123;DHT22;10719;48.130;11.630;2023-02-11T00:32:49;-2.00;99.90
21123;DHT22;10719;48.130;11.630;2023-02-11T00:35:15;-1.80;99.90
21123;DHT22;10719;48.130;11.630;2023-02-11T00:37:40;-1.70;99.90
21123;DHT22;10719;48.130;11.630;2023-02-11T00:40:06;-1.70;99.90
21123;DHT22;10719;48.130;11.630;2023-02-11T00:42:32;-1.70;99.90
21123;DHT22;10719;48.130;11.630;2023-02-11T00:45:00;-1.80;99.90
21123;DHT22;10719;48.130;11.630;2023-02-11T00:47:26;-1.80;99.90
21123;DHT22;10719;48.130;11.630;2023-02-11T00:49:51;-1.80;99.90
21123;DHT22;10719;48.130;11.630;2023-02-11T00:52:17;-1.90;99.90
21123;DHT22;10719;48.130;11.630;2023-02-11T00:54:42;-1.90;99.90
21123;DHT22;10719;48.130;11.630;2023-02-11T00:57:08;-2.00;99.90
21123;DHT22;10719;48.130;11.630;2023-02-11T00:59:33;-2.00;99.90
21123;DHT22;10719;48.130;11.630;2023-02-11T01:01:59;-2.10;99.90
21123;DHT22;10719;48.130;11.630;2023-02-11T01:04:25;-2.10;99.90
21123;DHT22;10719;48.130;11.630;2023-02-11T01:06:50;-2.10;99.90
21123;DHT22;10719;48.130;11.630;2023-02-11T01:09:16;-2.20;99.90
21123;DHT22;10719;48.130;11.630;2023-02-11T01:11:42;-2.20;99.90
21123;DHT22;10719;48.130;11.630;2023-02-11T01:14:08;-2.20;99.90
21123;DHT22;10719;48.130;11.630;2023-02-11T01:16:33;-2.20;99.90
21123;DHT22;10719;48.130;11.630;2023-02-11T01:18:59;-2.20;99.90
21123;DHT22;10719;48.130;11.630;2023-02-11T01:21:25;-2.20;99.90
21123;DHT22;10719;48.130;11.630;2023-02-11T01:23:51;-2.30;99.90
21123;DHT22;10719;48.130;11.630;2023-02-11T01:26:17;-2.20;99.90
21123;DHT22;10719;48.130;11.630;2023-02-11T01:28:43;-2.30;99.90
21123;DHT22;10719;48.130;11.630;2023-02-11T01:31:09;-2.30;99.90
21123;DHT22;10719;48.130;11.630;2023-02-11T01:33:34;-2.20;99.90
21123;DHT22;10719;48.130;11.630;2023-02-11T01:36:02;-2.30;99.90
21123;DHT22;10719;48.130;11.630;2023-02-11T01:38:28;-2.30;99.90
21123;DHT22;10719;48.130;11.630;2023-02-11T01:41:00;-2.40;99.90
21123;DHT22;10719;48.130;11.630;2023-02-11T01:43:29;-2.40;99.90
21123;DHT22;10719;48.130;11.630;2023-02-11T01:46:17;-2.50;99.90
21123;DHT22;10719;48.130;11.630;2023-02-11T01:48:48;-2.50;99.90
21123;DHT22;10719;48.130;11.630;2023-02-11T01:51:25;-2.60;99.90
21123;DHT22;10719;48.130;11.630;2023-02-11T01:53:53;-2.60;99.90
21123;DHT22;10719;48.130;11.630;2023-02-11T01:56:42;-2.60;99.90
21123;DHT22;10719;48.130;11.630;2023-02-11T01:59:36;-2.50;99.90
21123;DHT22;10719;48.130;11.630;2023-02-11T02:02:09;-2.40;99.90
21123;DHT22;10719;48.130;11.630;2023-02-11T02:04:46;-2.40;99.90
21123;DHT22;10719;48.130;11.630;2023-02-11T02:07:23;-2.30;99.90
21123;DHT22;10719;48.130;11.630;2023-02-11T02:09:57;-2.20;99.90
21123;DHT22;10719;48.130;11.630;2023-02-11T02:12:24;-2.20;99.90
21123;DHT22;10719;48.130;11.630;2023-02-11T02:14:50;-2.30;99.90
21123;DHT22;10719;48.130;11.630;2023-02-11T02:17:28;-2.20;99.90
21123;DHT22;10719;48.130;11.630;2023-02-11T02:20:51;-2.20;99.90
21123;DHT22;10719;48.130;11.630;2023-02-11T02:31:58;-2.10;99.90
21123;DHT22;10719;48.130;11.630;2023-02-11T02:36:59;-2.20;99.90
21123;DHT22;10719;48.130;11.630;2023-02-11T02:39:30;-2.20;99.90
21123;DHT22;10719;48.130;11.630;2023-02-11T02:41:57;-2.10;99.90
21123;DHT22;10719;48.130;11.630;2023-02-11T02:44:23;-2.20;99.90
21123;DHT22;10719;48.130;11.630;2023-02-11T02:46:49;-2.20;99.90
21123;DHT22;10719;48.130;11.630;2023-02-11T02:49:15;-2.30;99.90
21123;DHT22;10719;48.130;11.630;2023-02-11T02:57:27;-2.40;99.90
21123;DHT22;10719;48.130;11.630;2023-02-11T03:02:47;-2.50;99.90
21123;DHT22;10719;48.130;11.630;2023-02-11T03:08:46;-2.60;99.90
21123;DHT22;10719;48.130;11.630;2023-02-11T03:11:16;-2.70;99.90
21123;DHT22;10719;48.130;11.630;2023-02-11T03:13:43;-2.70;99.90
21123;DHT22;10719;48.130;11.630;2023-02-11T03:16:14;-2.70;99.90
21123;DHT22;10719;48.130;11.630;2023-02-11T03:18:43;-2.80;99.90
21123;DHT22;10719;48.130;11.630;2023-02-11T03:21:10;-2.90;99.90
21123;DHT22;10719;48.130;11.630;2023-02-11T03:23:40;-2.90;99.90
21123;DHT22;10719;48.130;11.630;2023-02-11T03:29:03;-3.00;99.90
21123;DHT22;10719;48.130;11.630;2023-02-11T03:34:26;-3.00;99.90
21123;DHT22;10719;48.130;11.630;2023-02-11T03:37:08;-3.00;99.90
21123;DHT22;10719;48.130;11.630;2023-02-11T03:39:53;-2.90;99.90
21123;DHT22;10719;48.130;11.630;2023-02-11T03:42:22;-2.90;99.90
21123;DHT22;10719;48.130;11.630;2023-02-11T03:44:52;-3.00;99.90
21123;DHT22;10719;48.130;11.630;2023-02-11T03:47:23;-2.90;99.90
21123;DHT22;10719;48.130;11.630;2023-02-11T03:49:52;-2.90;99.90
21123;DHT22;10719;48.130;11.630;2023-02-11T03:52:21;-2.90;99.90
21123;DHT22;10719;48.130;11.630;2023-02-11T03:54:52;-2.90;99.90
21123;DHT22;10719;48.130;11.630;2023-02-11T03:57:18;-2.90;99.90
21123;DHT22;10719;48.130;11.630;2023-02-11T03:59:55;-2.90;99.90
21123;DHT22;10719;48.130;11.630;2023-02-11T04:02:30;-2.90;99.90
21123;DHT22;10719;48.130;11.630;2023-02-11T04:04:56;-2.90;99.90
21123;DHT22;10719;48.130;11.630;2023-02-11T04:07:22;-2.90;99.90
21123;DHT22;10719;48.130;11.630;2023-02-11T04:09:49;-2.90;99.90
21123;DHT22;10719;48.130;11.630;2023-02-11T04:12:14;-3.00;99.90
21123;DHT22;10719;48.130;11.630;2023-02-11T04:14:40;-3.00;99.90
21123;DHT22;10719;48.130;11.630;2023-02-11T04:17:05;-2.90;99.90
21123;DHT22;10719;48.130;11.630;2023-02-11T04:19:31;-3.00;99.90
21123;DHT22;10719;48.130;11.630;2023-02-11T04:21:57;-2.90;99.90
21123;DHT22;10719;48.130;11.630;2023-02-11T04:24:23;-2.90;99.90
21123;DHT22;10719;48.130;11.630;2023-02-11T04:26:48;-2.90;99.90
21123;DHT22;10719;48.130;11.630;2023-02-11T04:29:14;-2.90;99.90
21123;DHT22;10719;48.130;11.630;2023-02-11T04:31:39;-2.90;99.90
21123;DHT22;10719;48.130;11.630;2023-02-11T04:34:05;-2.90;99.90
21123;DHT22;10719;48.130;11.630;2023-02-11T04:36:30;-2.80;99.90
21123;DHT22;10719;48.130;11.630;2023-02-11T04:38:56;-2.60;99.90
21123;DHT22;10719;48.130;11.630;2023-02-11T04:41:22;-2.60;99.90
21123;DHT22;10719;48.130;11.630;2023-02-11T04:43:47;-2.50;99.90
21123;DHT22;10719;48.130;11.630;2023-02-11T04:46:13;-2.40;99.90
21123;DHT22;10719;48.130;11.630;2023-02-11T04:48:38;-2.40;99.90
21123;DHT22;10719;48.130;11.630;2023-02-11T04:51:04;-2.40;99.90
21123;DHT22;10719;48.130;11.630;2023-02-11T04:53:30;-2.40;99.90
21123;DHT22;10719;48.130;11.630;2023-02-11T04:55:55;-2.30;99.90
21123;DHT22;10719;48.130;11.630;2023-02-11T04:58:21;-2.30;99.90
21123;DHT22;10719;48.130;11.630;2023-02-11T05:00:46;-2.40;99.90
21123;DHT22;10719;48.130;11.630;2023-02-11T05:03:12;-2.40;99.90
21123;DHT22;10719;48.130;11.630;2023-02-11T05:05:39;-2.50;99.90
21123;DHT22;10719;48.130;11.630;2023-02-11T05:08:06;-2.50;99.90
21123;DHT22;10719;48.130;11.630;2023-02-11T05:10:31;-2.50;99.90
21123;DHT22;10719;48.130;11.630;2023-02-11T05:12:57;-2.60;99.90
21123;DHT22;10719;48.130;11.630;2023-02-11T05:15:22;-2.60;99.90
21123;DHT22;10719;48.130;11.630;2023-02-11T05:17:48;-2.60;99.90
21123;DHT22;10719;48.130;11.630;2023-02-11T05:20:13;-2.50;99.90
21123;DHT22;10719;48.130;11.630;2023-02-11T05:22:39;-2.50;99.90
21123;DHT22;10719;48.130;11.630;2023-02-11T05:25:05;-2.30;99.90
21123;DHT22;10719;48.130;11.630;2023-02-11T05:27:30;-2.30;99.90
21123;DHT22;10719;48.130;11.630;2023-02-11T05:29:56;-2.20;99.90
21123;DHT22;10719;48.130;11.630;2023-02-11T05:32:22;-2.10;99.90
21123;DHT22;10719;48.130;11.630;2023-02-11T05:34:47;-2.10;99.90
21123;DHT22;10719;48.130;11.630;2023-02-11T05:37:13;-2.00;99.90
21123;DHT22;10719;48.130;11.630;2023-02-11T05:39:38;-2.00;99.90
21123;DHT22;10719;48.130;11.630;2023-02-11T05:42:04;-2.00;99.90
21123;DHT22;10719;48.130;11.630;2023-02-11T05:44:30;-1.90;99.90
21123;DHT22;10719;48.130;11.630;2023-02-11T05:46:55;-1.90;99.90
21123;DHT22;10719;48.130;11.630;2023-02-11T05:49:21;-1.90;99.90
21123;DHT22;10719;48.130;11.630;2023-02-11T05:51:47;-1.80;99.90
21123;DHT22;10719;48.130;11.630;2023-02-11T05:54:12;-1.80;99.90
21123;DHT22;10719;48.130;11.630;2023-02-11T05:56:38;-1.70;99.90
21123;DHT22;10719;48.130;11.630;2023-02-11T05:59:04;-1.50;99.90
21123;DHT22;10719;48.130;11.630;2023-02-11T06:01:29;-1.60;99.90
21123;DHT22;10719;48.130;11.630;2023-02-11T06:03:55;-1.60;99.90
21123;DHT22;10719;48.130;11.630;2023-02-11T06:06:20;-1.70;99.90
21123;DHT22;10719;48.130;11.630;2023-02-11T06:08:46;-1.70;99.90
21123;DHT22;10719;48.130;11.630;2023-02-11T06:11:14;-1.90;99.90
21123;DHT22;10719;48.130;11.630;2023-02-11T06:13:40;-1.80;99.90
21123;DHT22;10719;48.130;11.630;2023-02-11T06:16:05;-1.90;99.90
21123;DHT22;10719;48.130;11.630;2023-02-11T06:18:31;-1.90;99.90
21123;DHT22;10719;48.130;11.630;2023-02-11T06:20:58;-1.80;99.90
21123;DHT22;10719;48.130;11.630;2023-02-11T06:23:24;-1.90;99.90
21123;DHT22;10719;48.130;11.630;2023-02-11T06:25:51;-1.90;99.90
21123;DHT22;10719;48.130;11.630;2023-02-11T06:28:17;-1.90;99.90
21123;DHT22;10719;48.130;11.630;2023-02-11T06:30:42;-1.90;99.90
21123;DHT22;10719;48.130;11.630;2023-02-11T06:33:08;-1.90;99.90
21123;DHT22;10719;48.130;11.630;2023-02-11T06:35:34;-1.90;99.90
21123;DHT22;10719;48.130;11.630;2023-02-11T06:38:01;-1.90;99.90
21123;DHT22;10719;48.130;11.630;2023-02-11T06:40:26;-1.80;99.90
21123;DHT22;10719;48.130;11.630;2023-02-11T06:42:52;-1.70;99.90
21123;DHT22;10719;48.130;11.630;2023-02-11T06:45:17;-1.70;99.90
21123;DHT22;10719;48.130;11.630;2023-02-11T06:47:44;-1.70;99.90
21123;DHT22;10719;48.130;11.630;2023-02-11T06:50:12;-1.60;99.90
21123;DHT22;10719;48.130;11.630;2023-02-11T06:52:38;-1.60;99.90
21123;DHT22;10719;48.130;11.630;2023-02-11T06:55:04;-1.50;99.90
21123;DHT22;10719;48.130;11.630;2023-02-11T06:57:30;-1.30;99.90
21123;DHT22;10719;48.130;11.630;2023-02-11T06:59:56;-1.20;99.90
21123;DHT22;10719;48.130;11.630;2023-02-11T07:02:21;-1.20;99.90
21123;DHT22;10719;48.130;11.630;2023-02-11T07:04:48;-1.10;99.90
21123;DHT22;10719;48.130;11.630;2023-02-11T07:07:13;-1.10;99.90
21123;DHT22;10719;48.130;11.630;2023-02-11T07:09:39;-0.90;99.90
21123;DHT22;10719;48.130;11.630;2023-02-11T07:12:05;-0.90;99.90
21123;DHT22;10719;48.130;11.630;2023-02-11T07:14:30;-0.80;99.90
21123;DHT22;10719;48.130;11.630;2023-02-11T07:16:56;-0.70;99.90
21123;DHT22;10719;48.130;11.630;2023-02-11T07:19:22;-0.60;99.90
21123;DHT22;10719;48.130;11.630;2023-02-11T07:21:47;-0.70;99.90
21123;DHT22;10719;48.130;11.630;2023-02-11T07:24:13;-0.60;99.90
21123;DHT22;10719;48.130;11.630;2023-02-11T07:26:39;-0.60;99.90
21123;DHT22;10719;48.130;11.630;2023-02-11T07:29:04;-0.60;99.90
21123;DHT22;10719;48.130;11.630;2023-02-11T07:31:31;-0.50;99.90
21123;DHT22;10719;48.130;11.630;2023-02-11T07:33:59;-0.50;99.90
21123;DHT22;10719;48.130;11.630;2023-02-11T07:36:26;-0.50;99.90
21123;DHT22;10719;48.130;11.630;2023-02-11T07:38:52;-0.40;99.90
21123;DHT22;10719;48.130;11.630;2023-02-11T07:41:19;-0.40;99.90
21123;DHT22;10719;48.130;11.630;2023-02-11T07:43:46;-0.40;99.90
21123;DHT22;10719;48.130;11.630;2023-02-11T07:46:15;-0.30;99.90
21123;DHT22;10719;48.130;11.630;2023-02-11T07:48:41;-0.10;99.90
21123;DHT22;10719;48.130;11.630;2023-02-11T07:51:09;0.00;99.90
21123;DHT22;10719;48.130;11.630;2023-02-11T07:53:35;0.00;99.90
21123;DHT22;10719;48.130;11.630;2023-02-11T07:56:02;0.00;99.90
21123;DHT22;10719;48.130;11.630;2023-02-11T07:58:28;0.00;99.90
21123;DHT22;10719;48.130;11.630;2023-02-11T08:00:54;0.00;99.90
21123;DHT22;10719;48.130;11.630;2023-02-11T08:03:20;0.00;99.90
21123;DHT22;10719;48.130;11.630;2023-02-11T08:05:45;0.10;99.90
21123;DHT22;10719;48.130;11.630;2023-02-11T08:08:11;0.10;99.90
21123;DHT22;10719;48.130;11.630;2023-02-11T08:10:36;0.20;99.90
21123;DHT22;10719;48.130;11.630;2023-02-11T08:13:02;0.30;99.90
21123;DHT22;10719;48.130;11.630;2023-02-11T08:15:27;0.40;99.90
21123;DHT22;10719;48.130;11.630;2023-02-11T08:17:53;0.60;99.90
21123;DHT22;10719;48.130;11.630;2023-02-11T08:20:18;0.80;99.90
21123;DHT22;10719;48.130;11.630;2023-02-11T08:22:44;1.00;99.90
21123;DHT22;10719;48.130;11.630;2023-02-11T08:25:10;1.10;99.90
21123;DHT22;10719;48.130;11.630;2023-02-11T08:27:35;1.10;99.90
21123;DHT22;10719;48.130;11.630;2023-02-11T08:30:01;1.20;99.90
21123;DHT22;10719;48.130;11.630;2023-02-11T08:32:27;1.30;99.90
21123;DHT22;10719;48.130;11.630;2023-02-11T08:34:53;1.50;99.90
21123;DHT22;10719;48.130;11.630;2023-02-11T08:37:19;1.70;99.90
21123;DHT22;10719;48.130;11.630;2023-02-11T08:39:45;1.80;99.90
21123;DHT22;10719;48.130;11.630;2023-02-11T08:42:12;1.80;99.90
21123;DHT22;10719;48.130;11.630;2023-02-11T08:44:38;1.80;99.90
21123;DHT22;10719;48.130;11.630;2023-02-11T08:47:04;1.90;99.90
21123;DHT22;10719;48.130;11.630;2023-02-11T08:49:29;2.10;99.90
21123;DHT22;10719;48.130;11.630;2023-02-11T08:51:56;2.30;99.90
21123;DHT22;10719;48.130;11.630;2023-02-11T08:54:26;2.40;99.90
21123;DHT22;10719;48.130;11.630;2023-02-11T08:56:52;2.40;99.90
21123;DHT22;10719;48.130;11.630;2023-02-11T08:59:17;2.60;99.90
21123;DHT22;10719;48.130;11.630;2023-02-11T09:01:43;2.50;99.90
21123;DHT22;10719;48.130;11.630;2023-02-11T09:04:11;2.50;99.90
21123;DHT22;10719;48.130;11.630;2023-02-11T09:06:36;2.50;99.90
21123;DHT22;10719;48.130;11.630;2023-02-11T09:09:02;2.50;99.90
21123;DHT22;10719;48.130;11.630;2023-02-11T09:11:31;2.50;99.90
21123;DHT22;10719;48.130;11.630;2023-02-11T09:13:57;2.70;99.90
21123;DHT22;10719;48.130;11.630;2023-02-11T09:16:29;2.60;99.90
21123;DHT22;10719;48.130;11.630;2023-02-11T09:18:56;2.60;99.90
21123;DHT22;10719;48.130;11.630;2023-02-11T09:21:23;2.50;99.90
21123;DHT22;10719;48.130;11.630;2023-02-11T09:23:49;2.60;99.90
21123;DHT22;10719;48.130;11.630;2023-02-11T09:26:22;2.60;99.90
21123;DHT22;10719;48.130;11.630;2023-02-11T09:28:49;2.50;99.90
21123;DHT22;10719;48.130;11.630;2023-02-11T09:31:18;2.60;99.90
21123;DHT22;10719;48.130;11.630;2023-02-11T09:33:45;2.50;99.90
21123;DHT22;10719;48.130;11.630;2023-02-11T09:36:25;2.60;99.90
21123;DHT22;10719;48.130;11.630;2023-02-11T09:38:53;2.60;99.90
21123;DHT22;10719;48.130;11.630;2023-02-11T09:44:16;2.80;99.90
21123;DHT22;10719;48.130;11.630;2023-02-11T09:46:52;2.90;99.90
21123;DHT22;10719;48.130;11.630;2023-02-11T09:49:23;3.00;99.90
21123;DHT22;10719;48.130;11.630;2023-02-11T09:51:54;3.10;99.90
21123;DHT22;10719;48.130;11.630;2023-02-11T09:54:36;3.20;99.90
21123;DHT22;10719;48.130;11.630;2023-02-11T09:57:07;3.00;99.90
21123;DHT22;10719;48.130;11.630;2023-02-11T09:59:33;3.10;99.90
21123;DHT22;10719;48.130;11.630;2023-02-11T10:02:11;3.20;99.90
21123;DHT22;10719;48.130;11.630;2023-02-11T10:05:10;3.40;99.90
21123;DHT22;10719;48.130;11.630;2023-02-11T10:07:51;3.50;99.90
21123;DHT22;10719;48.130;11.630;2023-02-11T10:13:31;4.10;99.90
21123;DHT22;10719;48.130;11.630;2023-02-11T10:16:08;4.40;99.90
21123;DHT22;10719;48.130;11.630;2023-02-11T10:18:50;4.80;99.90
21123;DHT22;10719;48.130;11.630;2023-02-11T10:21:26;5.00;99.90
21123;DHT22;10719;48.130;11.630;2023-02-11T10:23:59;5.30;99.90
21123;DHT22;10719;48.130;11.630;2023-02-11T10:26:29;5.10;99.90
21123;DHT22;10719;48.130;11.630;2023-02-11T10:28:59;5.10;99.90
21123;DHT22;10719;48.130;11.630;2023-02-11T10:31:35;4.90;99.90
21123;DHT22;10719;48.130;11.630;2023-02-11T10:34:05;4.70;99.90
21123;DHT22;10719;48.130;11.630;2023-02-11T10:36:37;4.70;99.90
21123;DHT22;10719;48.130;11.630;2023-02-11T10:39:29;4.70;99.90
21123;DHT22;10719;48.130;11.630;2023-02-11T10:42:04;4.90;99.90
21123;DHT22;10719;48.130;11.630;2023-02-11T10:44:34;4.70;99.90
21123;DHT22;10719;48.130;11.630;2023-02-11T10:47:14;4.80;99.90
21123;DHT22;10719;48.130;11.630;2023-02-11T10:49:44;6.30;99.90
21123;DHT22;10719;48.130;11.630;2023-02-11T10:57:20;8.60;99.90
21123;DHT22;10719;48.130;11.630;2023-02-11T10:59:46;8.90;99.90
21123;DHT22;10719;48.130;11.630;2023-02-11T11:02:28;9.90;99.90
21123;DHT22;10719;48.130;11.630;2023-02-11T11:04:58;11.20;99.90
21123;DHT22;10719;48.130;11.630;2023-02-11T11:07:27;10.60;99.90
21123;DHT22;10719;48.130;11.630;2023-02-11T11:15:13;7.70;99.90
21123;DHT22;10719;48.130;11.630;2023-02-11T11:17:41;7.10;99.90
21123;DHT22;10719;48.130;11.630;2023-02-11T11:22:48;6.50;99.90
21123;DHT22;10719;48.130;11.630;2023-02-11T11:25:26;6.60;99.90
21123;DHT22;10719;48.130;11.630;2023-02-11T11:27:56;6.70;99.90
21123;DHT22;10719;48.130;11.630;2023-02-11T11:30:26;6.60;99.90
21123;DHT22;10719;48.130;11.630;2023-02-11T11:32:55;6.50;99.90
21123;DHT22;10719;48.130;11.630;2023-02-11T11:35:28;6.50;99.90
21123;DHT22;10719;48.130;11.630;2023-02-11T11:38:00;6.20;99.90
21123;DHT22;10719;48.130;11.630;2023-02-11T11:40:31;6.30;99.90
21123;DHT22;10719;48.130;11.630;2023-02-11T11:43:16;6.60;99.90
21123;DHT22;10719;48.130;11.630;2023-02-11T11:45:55;6.70;99.90
21123;DHT22;10719;48.130;11.630;2023-02-11T11:48:31;7.10;99.90
21123;DHT22;10719;48.130;11.630;2023-02-11T11:51:03;7.50;99.90
21123;DHT22;10719;48.130;11.630;2023-02-11T11:56:25;7.70;99.90
21123;DHT22;10719;48.130;11.630;2023-02-11T11:58:51;8.40;99.90
21123;DHT22;10719;48.130;11.630;2023-02-11T12:02:09;8.70;99.90
21123;DHT22;10719;48.130;11.630;2023-02-11T12:18:29;7.00;99.90
21123;DHT22;10719;48.130;11.630;2023-02-11T12:27:15;7.10;99.90
21123;DHT22;10719;48.130;11.630;2023-02-11T12:44:30;9.30;99.90
21123;DHT22;10719;48.130;11.630;2023-02-11T12:47:27;9.00;99.90
21123;DHT22;10719;48.130;11.630;2023-02-11T12:52:49;7.70;99.90
21123;DHT22;10719;48.130;11.630;2023-02-11T12:55:18;7.50;99.90
21123;DHT22;10719;48.130;11.630;2023-02-11T12:57:47;7.30;99.90
21123;DHT22;10719;48.130;11.630;2023-02-11T13:00:24;7.40;99.90
21123;DHT22;10719;48.130;11.630;2023-02-11T13:10:46;7.80;99.90
21123;DHT22;10719;48.130;11.630;2023-02-11T13:13:18;7.90;99.90
21123;DHT22;10719;48.130;11.630;2023-02-11T13:16:34;7.80;99.90
21123;DHT22;10719;48.130;11.630;2023-02-11T13:24:17;7.50;99.90
21123;DHT22;10719;48.130;11.630;2023-02-11T13:27:00;7.90;99.90
21123;DHT22;10719;48.130;11.630;2023-02-11T13:35:39;12.70;99.90
21123;DHT22;10719;48.130;11.630;2023-02-11T13:38:23;14.20;99.90
21123;DHT22;10719;48.130;11.630;2023-02-11T13:43:57;15.50;99.90
21123;DHT22;10719;48.130;11.630;2023-02-11T13:46:24;13.60;99.90
21123;DHT22;10719;48.130;11.630;2023-02-11T13:48:53;13.00;99.90
21123;DHT22;10719;48.130;11.630;2023-02-11T13:51:35;11.90;99.90
21123;DHT22;10719;48.130;11.630;2023-02-11T13:54:03;11.30;99.90
21123;DHT22;10719;48.130;11.630;2023-02-11T13:56:38;10.40;99.90
21123;DHT22;10719;48.130;11.630;2023-02-11T14:05:00;9.40;99.90
21123;DHT22;10719;48.130;11.630;2023-02-11T14:10:50;8.70;99.90
21123;DHT22;10719;48.130;11.630;2023-02-11T14:15:45;8.50;99.90
21123;DHT22;10719;48.130;11.630;2023-02-11T14:21:13;8.60;99.90
21123;DHT22;10719;48.130;11.630;2023-02-11T14:23:40;8.40;99.90
21123;DHT22;10719;48.130;11.630;2023-02-11T14:28:47;8.10;99.90
21123;DHT22;10719;48.130;11.630;2023-02-11T14:31:20;8.00;99.90
21123;DHT22;10719;48.130;11.630;2023-02-11T14:36:37;7.80;99.90
21123;DHT22;10719;48.130;11.630;2023-02-11T14:39:24;7.80;99.90
21123;DHT22;10719;48.130;11.630;2023-02-11T14:41:53;7.80;99.90
21123;DHT22;10719;48.130;11.630;2023-02-11T14:44:30;7.70;99.90
21123;DHT22;10719;48.130;11.630;2023-02-11T14:46:56;7.70;99.90
21123;DHT22;10719;48.130;11.630;2023-02-11T14:49:34;7.70;99.90
21123;DHT22;10719;48.130;11.630;2023-02-11T14:52:29;7.40;99.90
21123;DHT22;10719;48.130;11.630;2023-02-11T14:57:33;7.20;99.90
21123;DHT22;10719;48.130;11.630;2023-02-11T15:00:06;7.20;99.90
21123;DHT22;10719;48.130;11.630;2023-02-11T15:02:38;7.20;99.90
21123;DHT22;10719;48.130;11.630;2023-02-11T15:05:21;7.30;99.90
21123;DHT22;10719;48.130;11.630;2023-02-11T15:07:53;7.30;99.90
21123;DHT22;10719;48.130;11.630;2023-02-11T15:10:35;7.30;99.90
21123;DHT22;10719;48.130;11.630;2023-02-11T15:13:03;7.50;99.90
21123;DHT22;10719;48.130;11.630;2023-02-11T15:15:30;7.40;99.90
21123;DHT22;10719;48.130;11.630;2023-02-11T15:17:59;7.30;99.90
21123;DHT22;10719;48.130;11.630;2023-02-11T15:20:27;7.40;99.90
21123;DHT22;10719;48.130;11.630;2023-02-11T15:23:03;7.30;99.90
21123;DHT22;10719;48.130;11.630;2023-02-11T15:25:30;7.10;99.90
21123;DHT22;10719;48.130;11.630;2023-02-11T15:27:57;7.10;99.90
21123;DHT22;10719;48.130;11.630;2023-02-11T15:32:54;7.20;99.90
21123;DHT22;10719;48.130;11.630;2023-02-11T15:35:27;7.10;99.90
21123;DHT22;10719;48.130;11.630;2023-02-11T15:37:54;7.10;99.90
21123;DHT22;10719;48.130;11.630;2023-02-11T15:40:25;7.10;99.90
21123;DHT22;10719;48.130;11.630;2023-02-11T15:43:05;7.00;99.90
21123;DHT22;10719;48.130;11.630;2023-02-11T15:45:58;7.00;99.90
21123;DHT22;10719;48.130;11.630;2023-02-11T15:48:24;6.90;99.90
21123;DHT22;10719;48.130;11.630;2023-02-11T15:53:26;6.60;99.90
21123;DHT22;10719;48.130;11.630;2023-02-11T15:58:42;6.40;99.90
21123;DHT22;10719;48.130;11.630;2023-02-11T16:01:09;6.40;99.90
21123;DHT22;10719;48.130;11.630;2023-02-11T16:03:35;6.40;99.90
21123;DHT22;10719;48.130;11.630;2023-02-11T16:06:22;6.50;99.90
21123;DHT22;10719;48.130;11.630;2023-02-11T16:09:03;6.40;99.90
21123;DHT22;10719;48.130;11.630;2023-02-11T16:11:48;6.30;99.90
21123;DHT22;10719;48.130;11.630;2023-02-11T16:14:38;6.30;99.90
21123;DHT22;10719;48.130;11.630;2023-02-11T16:17:11;6.30;99.90
21123;DHT22;10719;48.130;11.630;2023-02-11T16:19:45;6.10;99.90
21123;DHT22;10719;48.130;11.630;2023-02-11T16:22:23;6.10;99.90
21123;DHT22;10719;48.130;11.630;2023-02-11T16:24:52;6.00;99.90
21123;DHT22;10719;48.130;11.630;2023-02-11T16:27:22;6.00;99.90
21123;DHT22;10719;48.130;11.630;2023-02-11T16:29:49;6.00;99.90
21123;DHT22;10719;48.130;11.630;2023-02-11T16:32:16;6.00;99.90
21123;DHT22;10719;48.130;11.630;2023-02-11T16:34:42;6.00;99.90
21123;DHT22;10719;48.130;11.630;2023-02-11T16:37:07;5.90;99.90
21123;DHT22;10719;48.130;11.630;2023-02-11T16:39:33;5.90;99.90
21123;DHT22;10719;48.130;11.630;2023-02-11T16:41:59;5.80;99.90
21123;DHT22;10719;48.130;11.630;2023-02-11T16:44:25;5.80;99.90
21123;DHT22;10719;48.130;11.630;2023-02-11T16:46:52;5.70;99.90
21123;DHT22;10719;48.130;11.630;2023-02-11T16:49:24;5.60;99.90
21123;DHT22;10719;48.130;11.630;2023-02-11T16:51:52;5.60;99.90
21123;DHT22;10719;48.130;11.630;2023-02-11T16:54:18;5.60;99.90
21123;DHT22;10719;48.130;11.630;2023-02-11T16:56:44;5.60;99.90
21123;DHT22;10719;48.130;11.630;2023-02-11T16:59:11;5.60;99.90
21123;DHT22;10719;48.130;11.630;2023-02-11T17:01:37;5.60;99.90
21123;DHT22;10719;48.130;11.630;2023-02-11T17:04:05;5.60;99.90
21123;DHT22;10719;48.130;11.630;2023-02-11T17:06:32;5.60;99.90
21123;DHT22;10719;48.130;11.630;2023-02-11T17:08:58;5.60;99.90
21123;DHT22;10719;48.130;11.630;2023-02-11T17:11:24;5.50;99.90
21123;DHT22;10719;48.130;11.630;2023-02-11T17:13:49;5.50;99.90
21123;DHT22;10719;48.130;11.630;2023-02-11T17:16:21;5.40;99.90
21123;DHT22;10719;48.130;11.630;2023-02-11T17:18:47;5.40;99.90
21123;DHT22;10719;48.130;11.630;2023-02-11T17:21:14;5.30;99.90
21123;DHT22;10719;48.130;11.630;2023-02-11T17:23:39;5.30;99.90
21123;DHT22;10719;48.130;11.630;2023-02-11T17:26:05;5.30;99.90
21123;DHT22;10719;48.130;11.630;2023-02-11T17:28:31;5.30;99.90
21123;DHT22;10719;48.130;11.630;2023-02-11T17:30:58;5.20;99.90
21123;DHT22;10719;48.130;11.630;2023-02-11T17:33:23;5.30;99.90
21123;DHT22;10719;48.130;11.630;2023-02-11T17:35:49;5.20;99.90
21123;DHT22;10719;48.130;11.630;2023-02-11T17:38:15;5.20;99.90
21123;DHT22;10719;48.130;11.630;2023-02-11T17:40:41;5.20;99.90
21123;DHT22;10719;48.130;11.630;2023-02-11T17:43:06;5.20;99.90
21123;DHT22;10719;48.130;11.630;2023-02-11T17:45:32;5.20;99.90
21123;DHT22;10719;48.130;11.630;2023-02-11T17:47:57;5.10;99.90
21123;DHT22;10719;48.130;11.630;2023-02-11T17:50:23;5.10;99.90
21123;DHT22;10719;48.130;11.630;2023-02-11T17:52:48;5.00;99.90
21123;DHT22;10719;48.130;11.630;2023-02-11T17:55:14;5.00;99.90
21123;DHT22;10719;48.130;11.630;2023-02-11T17:57:40;5.10;99.90